Time;durP1;ratioP1;P1;durP2;ratioP2;P2;SDS_P1;SDS_P2;PMS_P1;PMS_P2;Temp;Humidity;BMP_temperature;BMP_pressure;BME280_temperature;BME280_humidity;BME280_pressure;Samples;Min_cycle;Max_cycle;Signal;HPM_P1;HPM_P2
2021/10/22 00:00:51;;;;;;;5.87;2.30;;;;;;;6.17;90.68;99902.44;4918531;29;20043;-80
2021/10/22 00:03:17;;;;;;;5.13;1.30;;;;;;;6.17;91.71;99891.97;4912919;29;20047;-80
2021/10/22 00:05:44;;;;;;;4.20;1.43;;;;;;;6.16;92.77;99895.47;4929805;29;20054;-80
2021/10/22 00:08:12;;;;;;;3.90;1.47;;;;;;;6.10;91.39;99899.03;4934261;29;20043;-80
2021/10/22 00:10:39;;;;;;;5.70;2.63;;;;;;;6.10;91.63;99899.03;4936798;29;20094;-80
2021/10/22 00:13:06;;;;;;;4.97;1.40;;;;;;;6.05;91.65;99907.84;4939610;29;20051;-79
2021/10/22 00:15:33;;;;;;;4.07;1.43;;;;;;;6.01;90.99;99927.16;4930230;29;20047;-78
2021/10/22 00:17:59;;;;;;;7.57;2.17;;;;;;;5.98;91.55;99928.06;4918575;29;20142;-80
2021/10/22 00:20:26;;;;;;;7.50;1.87;;;;;;;5.94;92.00;99915.88;4914697;29;20051;-80
2021/10/22 00:22:53;;;;;;;7.20;1.63;;;;;;;5.97;93.41;99920.19;4954015;29;20401;-80
2021/10/22 00:25:20;;;;;;;6.33;1.70;;;;;;;5.95;93.65;99922.00;4907468;29;20047;-81
2021/10/22 00:27:47;;;;;;;4.87;1.83;;;;;;;5.93;92.94;99920.25;4920758;29;20498;-81
2021/10/22 00:30:13;;;;;;;3.17;1.30;;;;;;;5.92;93.59;99917.66;4932868;29;20490;-80
2021/10/22 00:32:41;;;;;;;8.00;1.63;;;;;;;5.90;93.94;99932.53;4925775;29;20047;-81
2021/10/22 00:35:08;;;;;;;4.83;1.50;;;;;;;5.86;93.52;99922.94;4945720;29;20047;-80
2021/10/22 00:37:35;;;;;;;4.27;1.80;;;;;;;5.78;94.19;99937.91;4943314;29;20054;-80
2021/10/22 00:40:03;;;;;;;7.30;1.87;;;;;;;5.77;94.88;99946.66;4931215;29;20047;-80
2021/10/22 00:42:32;;;;;;;9.37;2.50;;;;;;;5.82;94.48;99947.47;4909628;29;20717;-80
2021/10/22 00:44:59;;;;;;;5.50;1.80;;;;;;;5.74;94.01;99939.72;4929211;29;20111;-81
2021/10/22 00:47:26;;;;;;;5.97;2.30;;;;;;;5.81;94.20;99933.50;4948889;29;20414;-81
2021/10/22 00:49:52;;;;;;;5.47;2.27;;;;;;;5.76;95.11;99937.06;4922978;29;20047;-81
2021/10/22 00:52:24;;;;;;;7.23;1.63;;;;;;;5.74;95.62;99938.84;4939573;29;20035;-82
2021/10/22 00:54:51;;;;;;;6.27;2.73;;;;;;;5.71;96.17;99931.00;4922351;29;20561;-81
2021/10/22 00:57:17;;;;;;;6.37;1.80;;;;;;;5.65;96.02;99940.69;4931817;29;20494;-81
2021/10/22 00:59:46;;;;;;;3.50;1.30;;;;;;;5.70;95.95;99940.63;4932462;29;20043;-81
2021/10/22 01:02:13;;;;;;;8.67;2.10;;;;;;;5.69;96.27;99941.50;4926483;29;20406;-80
2021/10/22 01:04:40;;;;;;;6.47;1.80;;;;;;;5.69;96.62;99949.38;4923949;29;20043;-81
2021/10/22 01:07:07;;;;;;;5.90;1.83;;;;;;;5.64;97.45;99938.09;4955832;29;20043;-81
2021/10/22 01:09:37;;;;;;;8.83;3.10;;;;;;;5.58;96.59;99935.53;4923570;29;20102;-80
2021/10/22 01:12:04;;;;;;;5.73;2.20;;;;;;;5.61;97.27;99952.06;4913054;29;20054;-81
2021/10/22 01:14:30;;;;;;;5.70;2.57;;;;;;;5.59;97.07;99953.84;4939181;29;20380;-81
2021/10/22 01:16:57;;;;;;;8.53;1.90;;;;;;;5.57;97.17;99947.78;4938561;29;20043;-81
2021/10/22 01:19:27;;;;;;;9.23;2.37;;;;;;;5.59;96.92;99955.59;4949924;29;20046;-80
2021/10/22 01:21:53;;;;;;;5.93;1.97;;;;;;;5.59;96.73;99959.09;4952660;29;20502;-81
2021/10/22 01:24:20;;;;;;;8.00;3.13;;;;;;;5.58;97.47;99959.97;4936110;29;20123;-80
2021/10/22 01:26:48;;;;;;;14.23;2.07;;;;;;;5.51;96.98;99955.69;4930604;29;20064;-81
2021/10/22 01:29:16;;;;;;;7.10;1.87;;;;;;;5.50;96.80;99960.94;4926390;29;20047;-81
2021/10/22 01:31:43;;;;;;;8.87;1.67;;;;;;;5.54;97.53;99957.41;4925260;29;20045;-80
2021/10/22 01:34:10;;;;;;;9.03;2.13;;;;;;;5.54;97.17;99968.75;4938605;29;20044;-80
2021/10/22 01:36:39;;;;;;;10.77;2.47;;;;;;;5.58;97.53;99961.72;4925698;29;20075;-80
2021/10/22 01:39:06;;;;;;;9.20;1.87;;;;;;;5.54;97.05;99965.25;4913524;29;20043;-80
2021/10/22 01:41:33;;;;;;;8.37;2.50;;;;;;;5.56;98.21;99951.28;4924239;29;20079;-80
2021/10/22 01:44:06;;;;;;;7.73;2.13;;;;;;;5.54;96.56;99957.41;4941899;29;20047;-80
2021/10/22 01:46:33;;;;;;;4.05;1.88;;;;;;;5.55;97.87;99946.94;4934005;29;20043;-80
2021/10/22 01:49:01;;;;;;;5.70;2.37;;;;;;;5.55;97.13;99951.28;4930993;29;20047;-80
2021/10/22 01:51:27;;;;;;;6.87;2.07;;;;;;;5.55;96.94;99956.50;4926732;29;20079;-80
2021/10/22 01:53:59;;;;;;;7.80;2.40;;;;;;;5.59;97.84;99977.44;4929662;29;20409;-81
2021/10/22 01:56:29;;;;;;;8.53;2.87;;;;;;;5.62;97.73;99973.91;4928085;29;20046;-80
2021/10/22 01:58:56;;;;;;;7.17;2.27;;;;;;;5.64;97.45;99983.50;4925905;29;20054;-80
2021/10/22 02:01:23;;;;;;;8.77;2.80;;;;;;;5.64;96.82;99969.53;4927519;29;20039;-80
2021/10/22 02:03:50;;;;;;;8.90;2.87;;;;;;;5.62;97.16;99969.53;4935591;29;20604;-80
2021/10/22 02:06:17;;;;;;;8.83;2.47;;;;;;;5.69;96.94;99982.56;4927515;29;20133;-79
2021/10/22 02:08:43;;;;;;;8.33;2.90;;;;;;;5.70;96.99;99989.53;4936788;29;20059;-80
2021/10/22 02:11:10;;;;;;;9.13;2.60;;;;;;;5.60;96.33;99980.91;4936654;29;20090;-80
2021/10/22 02:13:38;;;;;;;6.60;2.03;;;;;;;5.63;97.87;99980.88;4924651;29;20066;-80
2021/10/22 02:16:04;;;;;;;7.20;2.40;;;;;;;5.64;97.91;99974.78;4926800;29;20053;-81
2021/10/22 02:18:31;;;;;;;6.13;2.27;;;;;;;5.64;96.58;99975.66;4925577;29;20059;-80
2021/10/22 02:20:58;;;;;;;9.90;2.23;;;;;;;5.71;96.30;99978.16;4911743;29;20451;-80
2021/10/22 02:23:25;;;;;;;6.43;2.70;;;;;;;5.69;96.90;99975.56;4942485;29;20082;-80
2021/10/22 02:25:52;;;;;;;14.00;2.20;;;;;;;5.65;96.86;99966.88;4923828;29;20109;-80
2021/10/22 02:28:18;;;;;;;9.57;2.30;;;;;;;5.66;95.95;99991.34;4926227;29;20483;-80
2021/10/22 02:30:45;;;;;;;8.17;2.20;;;;;;;5.63;94.98;99967.78;4958737;28;20043;-80
2021/10/22 02:33:12;;;;;;;7.77;2.20;;;;;;;5.64;95.31;99986.13;4908152;29;20459;-81
2021/10/22 02:35:39;;;;;;;8.17;2.00;;;;;;;5.67;95.86;99972.09;4948002;29;20245;-80
2021/10/22 02:38:06;;;;;;;7.70;2.33;;;;;;;5.63;95.94;99973.91;4910930;28;20098;-81
2021/10/22 02:40:33;;;;;;;5.27;2.20;;;;;;;5.64;95.92;99967.78;4938912;29;20091;-81
2021/10/22 02:43:00;;;;;;;5.07;2.03;;;;;;;5.66;96.41;99970.38;4925524;29;20094;-81
2021/10/22 02:45:26;;;;;;;6.57;2.20;;;;;;;5.62;96.71;99964.28;4936445;29;20051;-80
2021/10/22 02:47:53;;;;;;;8.07;2.70;;;;;;;5.68;95.98;99965.97;4924016;29;20044;-80
2021/10/22 02:50:21;;;;;;;7.40;2.43;;;;;;;5.69;96.22;99964.22;4924676;29;20050;-80
2021/10/22 02:52:48;;;;;;;6.87;2.20;;;;;;;5.73;96.58;99976.41;4925645;29;20047;-80
2021/10/22 02:55:18;;;;;;;8.33;2.03;;;;;;;5.79;95.26;99979.81;4909299;29;20043;-81
2021/10/22 02:57:45;;;;;;;7.07;2.10;;;;;;;5.75;95.45;99988.63;4911485;29;20051;-80
2021/10/22 03:00:12;;;;;;;5.20;2.07;;;;;;;5.77;95.09;99980.72;4936402;29;20103;-80
2021/10/22 03:02:45;;;;;;;6.47;2.27;;;;;;;5.74;95.10;99979.03;4941475;29;20047;-80
2021/10/22 03:05:12;;;;;;;6.53;2.33;;;;;;;5.73;95.94;99984.28;4935719;29;20043;-80
2021/10/22 03:07:39;;;;;;;7.67;2.63;;;;;;;5.77;96.06;99981.59;4915152;29;20079;-80
2021/10/22 03:10:07;;;;;;;9.83;2.40;;;;;;;5.80;95.79;99983.31;4901645;29;20043;-80
2021/10/22 03:12:38;;;;;;;5.53;1.60;;;;;;;5.79;94.85;99981.56;4937437;29;20515;-80
2021/10/22 03:15:06;;;;;;;6.77;1.93;;;;;;;5.76;95.72;99985.09;4897139;29;20054;-80
2021/10/22 03:17:33;;;;;;;8.27;2.53;;;;;;;5.79;95.03;99971.94;4921947;29;20051;-79
2021/10/22 03:20:00;;;;;;;9.03;2.90;;;;;;;5.76;95.47;99981.63;4912023;29;20064;-80
2021/10/22 03:22:28;;;;;;;9.47;2.33;;;;;;;5.79;94.61;99981.56;4893698;29;20039;-79
2021/10/22 03:24:55;;;;;;;9.10;1.90;;;;;;;5.72;95.11;99972.94;4889309;29;20052;-80
2021/10/22 03:27:23;;;;;;;11.47;2.17;;;;;;;5.78;95.58;99978.09;4891818;29;20074;-80
2021/10/22 03:29:50;;;;;;;10.53;2.87;;;;;;;5.76;95.77;99964.13;4904899;29;20107;-80
2021/10/22 03:32:17;;;;;;;7.50;2.17;;;;;;;5.72;96.38;99977.28;4891825;29;20851;-80
2021/10/22 03:34:45;;;;;;;5.50;1.77;;;;;;;5.76;96.13;99977.25;4909912;29;20058;-80
2021/10/22 03:37:12;;;;;;;6.10;1.90;;;;;;;5.73;96.27;99973.81;4922767;29;20054;-80
2021/10/22 03:39:39;;;;;;;8.03;2.53;;;;;;;5.70;96.61;99968.56;4927436;29;20048;-81
2021/10/22 03:42:06;;;;;;;5.83;1.87;;;;;;;5.73;97.86;99971.19;4919420;29;20035;-80
2021/10/22 03:44:33;;;;;;;6.30;3.23;;;;;;;5.80;95.83;99967.56;4916304;29;20043;-80
2021/10/22 03:46:59;;;;;;;6.67;2.73;;;;;;;5.71;96.18;99968.56;4907782;29;20056;-80
2021/10/22 03:49:26;;;;;;;6.43;2.00;;;;;;;5.77;96.54;99965.00;4905042;29;20095;-80
2021/10/22 03:51:53;;;;;;;10.23;3.13;;;;;;;5.77;96.48;99978.97;4907722;29;20114;-79
2021/10/22 03:54:20;;;;;;;9.07;2.43;;;;;;;5.80;96.47;99980.69;4918700;29;20139;-81
2021/10/22 03:56:47;;;;;;;7.23;2.33;;;;;;;5.80;96.02;99971.09;4918629;29;20088;-79
2021/10/22 03:59:16;;;;;;;7.30;1.80;;;;;;;5.79;95.49;99977.19;4921189;29;20036;-80
2021/10/22 04:01:44;;;;;;;5.73;1.80;;;;;;;5.76;95.81;99981.63;4896351;29;20564;-80
2021/10/22 04:04:11;;;;;;;6.03;2.73;;;;;;;5.80;95.96;99971.09;4916939;29;20036;-80
2021/10/22 04:06:37;;;;;;;6.87;2.03;;;;;;;5.83;95.72;99968.44;4914570;29;20051;-79
2021/10/22 04:09:04;;;;;;;5.73;1.63;;;;;;;5.82;95.77;99971.94;4920113;29;20164;-80
2021/10/22 04:11:31;;;;;;;6.43;2.10;;;;;;;5.85;94.79;99965.78;4898148;29;20048;-79
2021/10/22 04:13:57;;;;;;;7.77;1.80;;;;;;;5.84;95.46;99971.91;4909202;29;20040;-79
2021/10/22 04:16:27;;;;;;;9.13;3.60;;;;;;;5.85;95.70;99968.41;4892375;29;20058;-80
2021/10/22 04:18:54;;;;;;;6.40;2.23;;;;;;;5.85;95.77;99969.25;4919440;29;20487;-80
2021/10/22 04:21:20;;;;;;;6.03;2.10;;;;;;;5.78;96.99;99964.09;4921673;29;20051;-79
2021/10/22 04:23:47;;;;;;;6.43;1.90;;;;;;;5.87;94.69;99969.25;4915646;29;20060;-79
2021/10/22 04:26:14;;;;;;;5.77;2.10;;;;;;;5.87;94.93;99971.84;4900101;29;20051;-80
2021/10/22 04:28:41;;;;;;;10.67;2.60;;;;;;;5.86;94.85;99963.13;4907504;29;20142;-80
2021/10/22 04:31:07;;;;;;;9.07;2.00;;;;;;;5.85;94.88;99963.16;4895997;29;20051;-79
2021/10/22 04:33:34;;;;;;;6.50;2.40;;;;;;;5.89;94.08;99960.50;4921501;29;20055;-80
2021/10/22 04:36:00;;;;;;;7.27;1.70;;;;;;;5.92;94.21;99962.22;4925089;29;20051;-80
2021/10/22 04:41:23;;;;;;;7.00;1.93;;;;;;;5.90;93.20;99966.59;4910063;29;20044;-80
2021/10/22 04:43:51;;;;;;;9.77;2.47;;;;;;;5.90;94.51;99962.25;4908573;29;20398;-80
2021/10/22 04:46:18;;;;;;;3.90;1.50;;;;;;;5.90;94.01;99964.88;4928361;29;20047;-80
2021/10/22 04:48:46;;;;;;;6.67;1.93;;;;;;;5.91;93.63;99960.50;4908386;29;20044;-79
2021/10/22 04:51:13;;;;;;;5.87;1.53;;;;;;;5.96;94.26;99957.81;4928563;29;20047;-79
2021/10/22 04:53:39;;;;;;;4.00;1.70;;;;;;;5.97;94.23;99957.81;4919572;29;20046;-80
2021/10/22 04:56:06;;;;;;;6.30;1.90;;;;;;;5.97;94.14;99964.78;4891042;29;20047;-80
2021/10/22 04:58:33;;;;;;;6.57;1.77;;;;;;;5.94;93.82;99963.06;4890167;29;20043;-80
2021/10/22 05:01:00;;;;;;;5.03;2.00;;;;;;;5.93;94.20;99956.97;4907168;29;20086;-80
2021/10/22 05:03:28;;;;;;;7.37;2.63;;;;;;;5.92;94.29;99960.47;4907598;29;20066;-79
2021/10/22 05:05:55;;;;;;;8.47;2.20;;;;;;;5.88;93.60;99953.47;4921941;29;20123;-80
2021/10/22 05:08:21;;;;;;;6.07;1.83;;;;;;;5.88;93.97;99950.88;4922772;29;20044;-79
2021/10/22 05:10:48;;;;;;;7.13;1.67;;;;;;;5.83;94.31;99964.94;4907111;29;20547;-79
2021/10/22 05:13:16;;;;;;;7.60;2.90;;;;;;;5.83;95.58;99954.44;4906259;29;20090;-79
2021/10/22 05:15:43;;;;;;;5.10;1.73;;;;;;;5.83;95.04;99946.59;4893690;29;20051;-80
2021/10/22 05:18:09;;;;;;;8.23;2.67;;;;;;;5.84;95.26;99951.81;4907318;29;20040;-79
2021/10/22 05:20:36;;;;;;;5.07;1.73;;;;;;;5.90;94.16;99950.88;4910508;29;20044;-79
2021/10/22 05:23:08;;;;;;;3.97;1.97;;;;;;;5.90;94.56;99954.38;4920069;29;20495;-79
2021/10/22 05:25:34;;;;;;;7.67;2.43;;;;;;;5.90;94.89;99962.25;4890704;29;20488;-79
2021/10/22 05:28:01;;;;;;;3.90;1.63;;;;;;;5.93;94.64;99959.59;4921938;29;20511;-81
2021/10/22 05:30:28;;;;;;;3.40;1.77;;;;;;;5.89;94.19;99963.13;4921151;29;20422;-79
2021/10/22 05:32:55;;;;;;;6.13;1.73;;;;;;;5.86;94.96;99970.13;4921619;29;20051;-80
2021/10/22 05:35:22;;;;;;;2.80;1.57;;;;;;;5.84;95.16;99951.81;4906906;29;20080;-79
2021/10/22 05:37:49;;;;;;;5.07;1.90;;;;;;;5.88;95.12;99955.25;4909271;29;20096;-79
2021/10/22 05:40:15;;;;;;;9.70;1.93;;;;;;;5.89;94.03;99944.75;4920372;29;20048;-79
2021/10/22 05:42:42;;;;;;;8.97;2.20;;;;;;;5.87;94.92;99945.66;4921744;29;20051;-81
2021/10/22 05:45:09;;;;;;;10.07;2.30;;;;;;;5.92;95.15;99938.63;4920806;29;20583;-80
2021/10/22 05:47:37;;;;;;;5.37;2.00;;;;;;;5.91;94.97;99953.50;4922453;29;20068;-80
2021/10/22 05:50:05;;;;;;;9.23;1.97;;;;;;;5.88;94.90;99950.88;4910809;29;20058;-79
2021/10/22 05:52:32;;;;;;;5.23;1.90;;;;;;;5.94;94.92;99944.72;4917700;29;20039;-82
2021/10/22 05:54:59;;;;;;;3.47;1.80;;;;;;;5.93;94.72;99945.59;4902504;29;20612;-80
2021/10/22 05:57:25;;;;;;;6.63;2.50;;;;;;;5.94;95.11;99942.09;4914226;29;20044;-80
2021/10/22 05:59:53;;;;;;;4.97;2.27;;;;;;;5.96;94.86;99947.31;4884495;29;20048;-80
2021/10/22 06:02:20;;;;;;;6.80;1.87;;;;;;;5.95;95.65;99948.22;4913038;29;20052;-81
2021/10/22 06:04:47;;;;;;;5.50;2.13;;;;;;;5.97;95.46;99951.66;4914811;29;20091;-83
2021/10/22 06:07:15;;;;;;;6.17;1.77;;;;;;;6.01;96.46;99945.50;4931761;29;20155;-82
2021/10/22 06:09:42;;;;;;;4.90;1.40;;;;;;;5.99;95.28;99937.66;4913066;29;20047;-82
2021/10/22 06:12:09;;;;;;;4.63;2.13;;;;;;;6.02;95.68;99935.00;4909002;29;20047;-83
2021/10/22 06:14:36;;;;;;;7.73;1.90;;;;;;;6.12;95.15;99943.59;4904884;29;20047;-81
2021/10/22 06:17:03;;;;;;;5.97;2.30;;;;;;;6.07;94.83;99943.69;4918555;29;20087;-80
2021/10/22 06:19:34;;;;;;;6.40;1.70;;;;;;;6.13;94.34;99921.72;4923011;29;20044;-81
2021/10/22 06:22:11;;;;;;;5.77;2.30;;;;;;;6.10;94.44;99941.00;4899020;29;20072;-81
2021/10/22 06:24:38;;;;;;;5.03;1.83;;;;;;;6.15;93.73;99927.84;4917388;29;20043;-79
2021/10/22 06:27:05;;;;;;;3.23;1.63;;;;;;;6.13;94.55;99933.09;4902456;29;20051;-79
2021/10/22 06:29:33;;;;;;;3.77;2.33;;;;;;;6.14;94.30;99929.59;4905648;29;20610;-80
2021/10/22 06:32:01;;;;;;;5.27;1.77;;;;;;;6.18;93.84;99933.91;4919856;29;20586;-81
2021/10/22 06:34:28;;;;;;;7.80;2.73;;;;;;;6.13;94.76;99921.72;4913581;29;20043;-82
2021/10/22 06:36:56;;;;;;;8.57;1.90;;;;;;;6.20;93.93;99933.88;4925999;29;20311;-80
2021/10/22 06:39:23;;;;;;;6.47;2.10;;;;;;;6.21;93.52;99935.59;4900198;29;20058;-81
2021/10/22 06:41:50;;;;;;;6.00;1.60;;;;;;;6.20;93.39;99926.00;4903231;29;20133;-80
2021/10/22 06:44:18;;;;;;;5.83;1.60;;;;;;;6.25;93.82;99931.19;4903208;29;20047;-82
2021/10/22 06:46:45;;;;;;;6.63;2.03;;;;;;;6.19;92.82;99925.13;4887091;29;20506;-80
2021/10/22 06:49:13;;;;;;;6.43;1.70;;;;;;;6.20;92.75;99937.34;4919006;29;20056;-80
2021/10/22 06:51:39;;;;;;;10.07;2.30;;;;;;;6.21;93.27;99932.97;4932891;29;20439;-80
2021/10/22 06:54:08;;;;;;;5.50;1.63;;;;;;;6.18;92.67;99926.03;4925096;29;20502;-80
2021/10/22 06:56:35;;;;;;;6.70;1.90;;;;;;;6.22;92.33;99926.84;4903000;29;20636;-79
2021/10/22 06:59:01;;;;;;;6.97;1.90;;;;;;;6.26;93.83;99932.94;4933043;29;20510;-81
2021/10/22 07:01:28;;;;;;;7.17;3.33;;;;;;;6.28;93.10;99928.50;4902397;29;20048;-80
2021/10/22 07:03:56;;;;;;;17.70;8.40;;;;;;;6.31;92.88;99921.47;4901813;29;20054;-80
2021/10/22 07:08:54;;;;;;;5.30;2.27;;;;;;;6.28;91.94;99936.38;4914041;29;20055;-80
2021/10/22 07:11:22;;;;;;;11.27;2.93;;;;;;;6.29;91.79;99938.97;4921553;29;20082;-80
2021/10/22 07:13:54;;;;;;;14.20;3.37;;;;;;;6.30;91.44;99934.59;4919807;29;20047;-83
2021/10/22 07:16:23;;;;;;;6.07;2.97;;;;;;;6.31;91.40;99936.38;4909884;29;20075;-81
2021/10/22 07:18:50;;;;;;;10.90;2.40;;;;;;;6.31;92.14;99937.22;4946517;29;20043;-80
2021/10/22 07:21:18;;;;;;;12.40;2.30;;;;;;;6.33;93.46;99930.19;4943311;28;20102;-82
2021/10/22 07:23:47;;;;;;;8.17;2.90;;;;;;;6.38;91.76;99922.22;4936425;29;20050;-81
2021/10/22 07:26:16;;;;;;;6.00;2.50;;;;;;;6.42;92.00;99924.81;4919971;29;20063;-81
2021/10/22 07:28:43;;;;;;;6.57;2.67;;;;;;;6.44;91.53;99923.00;4918902;29;20067;-83
2021/10/22 07:31:11;;;;;;;6.37;2.80;;;;;;;6.46;91.19;99909.88;4936431;29;20058;-81
2021/10/22 07:33:39;;;;;;;10.13;2.50;;;;;;;6.46;91.64;99921.22;4934683;29;20717;-82
2021/10/22 07:36:08;;;;;;;4.77;2.80;;;;;;;6.45;90.63;99930.00;4936726;29;20046;-80
2021/10/22 07:38:35;;;;;;;6.97;2.73;;;;;;;6.46;90.75;99922.97;4903378;29;20051;-81
2021/10/22 07:41:03;;;;;;;11.00;3.20;;;;;;;6.50;90.81;99916.81;4932004;29;20086;-81
2021/10/22 07:43:31;;;;;;;23.23;13.83;;;;;;;6.60;90.52;99914.91;4941448;29;20067;-80
2021/10/22 07:45:59;;;;;;;9.00;3.63;;;;;;;6.53;89.42;99921.13;4936683;29;20118;-81
2021/10/22 07:48:26;;;;;;;7.97;3.10;;;;;;;6.55;89.54;99912.34;4938510;29;20118;-80
2021/10/22 07:50:54;;;;;;;11.23;4.10;;;;;;;6.58;90.30;99916.69;4902095;29;20063;-82
2021/10/22 07:53:22;;;;;;;9.37;4.07;;;;;;;6.63;89.45;99920.09;4949799;28;20051;-81
2021/10/22 07:55:49;;;;;;;10.73;4.00;;;;;;;6.64;88.61;99914.84;4938783;28;20043;-80
2021/10/22 07:58:16;;;;;;;12.13;4.07;;;;;;;6.66;89.79;99912.19;4926185;28;20565;-80
2021/10/22 08:00:43;;;;;;;8.07;3.13;;;;;;;6.62;90.57;99908.72;4943528;28;20046;-81
2021/10/22 08:03:10;;;;;;;13.00;4.43;;;;;;;6.61;91.44;99919.25;4906412;29;20039;-80
2021/10/22 08:05:37;;;;;;;8.23;4.87;;;;;;;6.63;93.09;99917.47;4935019;29;20036;-82
2021/10/22 08:08:06;;;;;;;12.33;4.00;;;;;;;6.64;94.68;99909.59;4919913;29;20106;-81
2021/10/22 08:10:39;;;;;;;10.35;4.20;;;;;;;6.59;95.29;99914.03;4929752;29;20098;-81
2021/10/22 08:13:10;;;;;;;7.13;2.90;;;;;;;6.65;97.31;99918.34;4904300;29;20474;-81
2021/10/22 08:15:45;;;;;;;8.80;3.20;;;;;;;6.58;98.13;99912.31;4920925;29;20066;-81
2021/10/22 08:18:13;;;;;;;12.07;3.80;;;;;;;6.47;97.67;99901.09;4934848;29;20043;-82
2021/10/22 08:21:44;;;;;;;17.63;11.07;;;;;;;6.53;100.00;99893.13;5015531;23;20038;-80
2021/10/22 08:23:32;;;;;;;12.73;6.20;;;;;;;6.49;100.00;99897.59;4921968;28;20088;-81
2021/10/22 08:25:59;;;;;;;12.47;5.23;;;;;;;6.52;100.00;99893.16;4938970;29;20049;-78
2021/10/22 08:28:30;;;;;;;14.67;6.30;;;;;;;6.48;100.00;99887.13;4924136;28;20046;-79
2021/10/22 08:30:57;;;;;;;17.03;6.17;;;;;;;6.52;100.00;99887.91;4943343;28;20050;-83
2021/10/22 08:33:27;;;;;;;19.70;7.20;;;;;;;6.57;100.00;99879.09;4917952;29;20039;-83
2021/10/22 08:35:55;;;;;;;17.37;7.87;;;;;;;6.60;100.00;99888.66;4934965;28;20094;-80
2021/10/22 08:38:22;;;;;;;18.23;6.77;;;;;;;6.61;100.00;99883.38;4917028;29;20043;-80
2021/10/22 08:40:49;;;;;;;14.23;4.60;;;;;;;6.64;100.00;99878.09;4918574;29;20123;-83
2021/10/22 08:43:16;;;;;;;6.97;3.50;;;;;;;6.70;100.00;99871.84;4918227;29;20051;-84
2021/10/22 08:45:43;;;;;;;7.90;2.77;;;;;;;6.73;99.51;99862.19;4935187;29;20037;-83
2021/10/22 08:48:11;;;;;;;7.67;3.27;;;;;;;6.75;99.50;99857.78;4950554;28;20142;-86
2021/10/22 08:50:38;;;;;;;8.37;3.40;;;;;;;6.81;99.56;99869.03;4918267;29;20632;-82
2021/10/22 08:53:05;;;;;;;8.47;3.20;;;;;;;6.86;98.39;99861.94;4921200;29;20061;-80
2021/10/22 08:55:31;;;;;;;17.57;8.87;;;;;;;6.88;98.34;99857.53;4916753;29;20046;-81
2021/10/22 08:58:00;;;;;;;8.97;3.77;;;;;;;6.92;97.07;99853.97;4919895;28;20051;-82
2021/10/22 09:00:26;;;;;;;11.60;3.37;;;;;;;6.93;95.62;99863.56;4931640;29;20039;-82
2021/10/22 09:03:09;;;;;;;6.57;3.80;;;;;;;6.97;92.81;99842.47;4919933;29;20050;-84
2021/10/22 09:05:36;;;;;;;6.20;2.90;;;;;;;7.01;93.22;99861.69;4928541;29;20050;-83
2021/10/22 09:08:05;;;;;;;8.07;2.33;;;;;;;7.03;90.95;99846.75;4946379;29;20057;-82
2021/10/22 09:10:35;;;;;;;11.20;2.00;;;;;;;7.10;92.75;99844.88;4919252;29;20453;-84
2021/10/22 09:13:16;;;;;;;11.40;2.90;;;;;;;7.23;91.96;99848.97;4920033;29;20047;-83
2021/10/22 09:15:43;;;;;;;4.57;3.40;;;;;;;7.21;92.14;99861.28;4920229;29;20043;-83
2021/10/22 09:18:25;;;;;;;8.47;3.37;;;;;;;7.33;89.94;99843.53;4933949;29;20059;-83
2021/10/22 09:20:57;;;;;;;6.10;2.57;;;;;;;7.43;87.46;99835.47;4926749;29;20081;-82
2021/10/22 09:23:29;;;;;;;7.07;2.40;;;;;;;7.54;89.05;99842.22;4934421;29;20046;-85
2021/10/22 09:26:15;;;;;;;5.83;2.60;;;;;;;7.60;87.46;99851.75;4920022;29;20134;-81
2021/10/22 09:28:43;;;;;;;5.80;1.93;;;;;;;7.62;85.09;99839.41;4918015;29;20150;-84
2021/10/22 09:31:14;;;;;;;6.17;2.53;;;;;;;7.64;86.01;99827.09;4920820;29;20058;-84
2021/10/22 09:33:51;;;;;;;6.73;2.83;;;;;;;7.70;85.23;99836.63;4929638;29;20064;-85
2021/10/22 09:36:35;;;;;;;7.70;2.50;;;;;;;7.72;83.18;99830.44;4946559;29;20054;-82
2021/10/22 09:39:22;;;;;;;4.75;2.15;;;;;;;7.68;84.14;99839.28;4934353;29;20766;-86
2021/10/22 09:41:52;;;;;;;9.63;2.80;;;;;;;7.69;83.08;99840.16;4903901;29;20051;-82
2021/10/22 09:44:20;;;;;;;14.43;2.83;;;;;;;7.74;83.44;99831.28;4916390;29;20450;-84
2021/10/22 09:46:52;;;;;;;8.27;2.10;;;;;;;7.75;84.13;99840.91;4935289;29;20453;-82
2021/10/22 09:49:24;;;;;;;3.77;2.03;;;;;;;7.84;82.75;99826.69;4920226;29;20047;-82
2021/10/22 09:51:54;;;;;;;6.70;2.17;;;;;;;7.84;81.35;99827.53;4938967;29;20102;-83
2021/10/22 09:54:28;;;;;;;10.17;3.13;;;;;;;7.84;81.21;99830.16;4922548;29;20528;-82
2021/10/22 09:56:56;;;;;;;7.28;2.67;;;;;;;7.85;82.78;99828.41;4923015;29;20055;-82
2021/10/22 09:59:27;;;;;;;9.50;2.97;;;;;;;7.86;82.74;99825.72;4919156;29;20044;-83
2021/10/22 10:01:58;;;;;;;7.50;2.27;;;;;;;7.89;82.09;99823.03;4952440;28;20567;-81
2021/10/22 10:04:26;;;;;;;10.33;3.07;;;;;;;7.85;80.37;99821.38;4935247;29;20039;-84
2021/10/22 10:07:04;;;;;;;6.00;2.07;;;;;;;7.92;81.20;99815.97;4935880;29;20055;-84
2021/10/22 10:09:31;;;;;;;8.03;2.03;;;;;;;7.88;81.57;99826.56;4937286;29;20483;-83
2021/10/22 10:12:01;;;;;;;6.03;2.27;;;;;;;7.89;81.66;99823.03;4921449;29;20055;-84
2021/10/22 10:14:28;;;;;;;7.63;2.67;;;;;;;7.96;81.29;99807.09;4921393;29;20047;-83
2021/10/22 10:16:55;;;;;;;5.47;2.37;;;;;;;8.00;80.23;99808.78;4930409;28;20047;-85
2021/10/22 10:19:33;;;;;;;12.23;2.97;;;;;;;8.04;80.54;99800.75;4934375;29;20537;-87
2021/10/22 10:22:11;;;;;;;6.50;2.67;;;;;;;8.09;81.23;99805.94;4937786;29;20097;-84
2021/10/22 10:24:41;;;;;;;5.37;2.27;;;;;;;8.09;80.00;99798.03;4916537;29;20558;-83
2021/10/22 10:27:14;;;;;;;12.80;3.03;;;;;;;8.13;79.60;99805.81;4921573;29;20047;-83
2021/10/22 10:29:46;;;;;;;9.30;2.33;;;;;;;8.17;79.29;99802.22;4936094;29;20043;-83
2021/10/22 10:32:15;;;;;;;5.07;1.87;;;;;;;8.29;79.37;99784.38;4941327;28;20291;-82
2021/10/22 10:34:47;;;;;;;8.50;2.90;;;;;;;8.36;79.35;99789.50;4919949;29;20055;-82
2021/10/22 10:37:41;;;;;;;8.17;3.20;;;;;;;8.40;80.00;99791.13;4921947;29;20494;-84
2021/10/22 10:40:21;;;;;;;10.70;3.47;;;;;;;8.41;78.18;99782.34;4935203;29;20051;-83
2021/10/22 10:42:50;;;;;;;4.37;2.37;;;;;;;8.39;77.59;99786.75;4914343;29;20073;-83
2021/10/22 10:45:26;;;;;;;10.37;2.90;;;;;;;8.42;78.32;99780.59;4915874;29;20257;-86
2021/10/22 10:48:05;;;;;;;5.17;2.40;;;;;;;8.39;78.94;99786.75;4920282;29;20050;-83
2021/10/22 10:50:50;;;;;;;6.18;2.75;;;;;;;8.42;80.01;99777.94;4953313;29;20074;-86
2021/10/22 10:53:38;;;;;;;8.97;2.80;;;;;;;8.49;78.67;99768.97;4911481;29;20099;-87
2021/10/22 10:56:08;;;;;;;5.78;2.15;;;;;;;8.49;79.33;99770.72;4922410;29;20047;-85
2021/10/22 10:58:45;;;;;;;6.57;2.42;;;;;;;8.48;78.40;99767.25;4904730;29;20047;-82
2021/10/22 11:01:34;;;;;;;4.43;1.97;;;;;;;8.50;79.17;99759.31;4954014;28;20462;-86
2021/10/22 11:04:03;;;;;;;4.63;2.00;;;;;;;8.50;80.50;99767.22;4933187;29;20193;-83
2021/10/22 11:06:44;;;;;;;9.40;2.97;;;;;;;8.55;79.14;99776.72;4920187;29;20415;-83
2021/10/22 11:09:15;;;;;;;5.90;2.58;;;;;;;8.60;78.67;99761.66;4941431;29;20576;-82
2021/10/22 11:11:42;;;;;;;7.68;2.50;;;;;;;8.62;79.93;99774.78;4925180;29;20043;-82
2021/10/22 11:14:11;;;;;;;5.82;2.40;;;;;;;8.62;78.91;99767.75;4933372;29;20151;-83
2021/10/22 11:16:49;;;;;;;5.47;2.97;;;;;;;8.59;78.63;99761.72;4919313;29;20047;-83
2021/10/22 11:19:22;;;;;;;11.23;3.17;;;;;;;8.54;78.08;99761.81;4914320;29;20056;-82
2021/10/22 11:21:51;;;;;;;6.22;2.45;;;;;;;8.55;79.29;99754.78;4915613;29;20083;-81
2021/10/22 11:24:23;;;;;;;8.33;3.13;;;;;;;8.55;78.96;99755.66;4929151;29;20051;-81
2021/10/22 11:27:03;;;;;;;6.00;2.55;;;;;;;8.59;78.09;99753.81;4946115;28;20039;-82
2021/10/22 11:29:32;;;;;;;9.40;2.45;;;;;;;8.57;79.92;99753.81;4940247;29;20047;-81
2021/10/22 11:32:02;;;;;;;4.05;1.88;;;;;;;8.55;80.18;99758.28;4932642;29;20141;-85
2021/10/22 11:34:37;;;;;;;6.37;2.97;;;;;;;8.52;81.13;99746.97;4933250;29;20069;-80
2021/10/22 11:37:16;;;;;;;5.95;2.65;;;;;;;8.45;81.31;99741.88;4950475;28;20043;-80
2021/10/22 11:39:50;;;;;;;6.07;2.10;;;;;;;8.42;83.03;99741.97;4933237;29;20533;-84
2021/10/22 11:42:27;;;;;;;9.10;3.47;;;;;;;8.39;84.00;99739.38;4925708;29;20051;-82
2021/10/22 11:45:09;;;;;;;5.40;2.50;;;;;;;8.33;84.64;99743.94;4939723;28;20113;-82
2021/10/22 11:47:46;;;;;;;9.10;2.73;;;;;;;8.18;86.32;99745.19;4907440;29;20138;-82
2021/10/22 11:50:31;;;;;;;6.10;2.37;;;;;;;8.08;88.23;99754.22;4891510;29;20059;-83
2021/10/22 11:53:10;;;;;;;5.00;2.73;;;;;;;8.02;91.86;99749.09;4917673;28;20524;-81